Time;durP1;ratioP1;P1;durP2;ratioP2;P2;SDS_P1;SDS_P2;PMS_P1;PMS_P2;Temp;Humidity;BMP_temperature;BMP_pressure;BME280_temperature;BME280_humidity;BME280_pressure;Samples;Min_cycle;Max_cycle;Signal;HPM_P1;HPM_P2
2022/04/08 00:02:14;;;;;;;;;;;;;;;21.41;28.91;96240.31;5016776;28;1967;-74
2022/04/08 00:04:50;;;;;;;;;;;;;;;21.22;29.14;96246.09;5016692;28;953;-74
2022/04/08 00:07:16;;;;;;;;;;;;;;;21.24;29.35;96246.41;5017022;28;932;-74
2022/04/08 00:09:41;;;;;;;;;;;;;;;21.26;29.20;96243.88;5016865;28;922;-75
2022/04/08 00:12:07;;;;;;;;;;;;;;;21.11;29.54;96240.22;5016689;28;899;-74
2022/04/08 00:14:33;;;;;;;;;;;;;;;21.18;29.59;96236.22;5016550;28;1453;-74
2022/04/08 00:16:58;;;;;;;;;;;;;;;21.11;29.60;96240.22;5016250;28;1453;-74
2022/04/08 00:19:24;;;;;;;;;;;;;;;21.08;29.68;96238.34;5016348;28;1024;-75
2022/04/08 00:21:49;;;;;;;;;;;;;;;21.17;29.39;96241.09;5016469;28;1910;-74
2022/04/08 00:24:17;;;;;;;;;;;;;;;21.18;29.43;96247.53;5016723;28;1090;-74
2022/04/08 00:26:44;;;;;;;;;;;;;;;21.17;29.58;96243.94;5016112;28;1464;-74
2022/04/08 00:29:10;;;;;;;;;;;;;;;21.12;29.42;96241.78;4967328;28;1556;-74
2022/04/08 00:31:35;;;;;;;;;;;;;;;21.68;28.94;96237.19;4955447;29;1019;-74
2022/04/08 00:34:00;;;;;;;;;;;;;;;21.82;28.75;96227.91;4955342;29;999;-74
2022/04/08 00:36:26;;;;;;;;;;;;;;;21.96;28.36;96217.84;4955280;29;1127;-74
2022/04/08 00:38:51;;;;;;;;;;;;;;;21.48;28.85;96217.28;4955139;29;943;-74
2022/04/08 00:41:17;;;;;;;;;;;;;;;21.25;29.18;96216.84;4955173;29;1981;-74
2022/04/08 00:43:42;;;;;;;;;;;;;;;21.22;29.32;96219.84;4960261;28;1466;-74
2022/04/08 00:46:09;;;;;;;;;;;;;;;21.22;29.34;96217.81;4974713;28;1155;-74
2022/04/08 00:48:36;;;;;;;;;;;;;;;21.28;29.68;96215.09;4956955;28;1529;-74
2022/04/08 00:51:02;;;;;;;;;;;;;;;21.35;29.70;96208.28;4955161;29;1078;-75
2022/04/08 00:53:27;;;;;;;;;;;;;;;21.37;29.61;96211.41;4939094;29;1904;-74
2022/04/08 00:55:54;;;;;;;;;;;;;;;21.66;28.96;96208.59;4939178;29;1490;-75
2022/04/08 00:58:19;;;;;;;;;;;;;;;22.01;28.38;96208.63;4897880;29;1068;-74
2022/04/08 01:00:45;;;;;;;;;;;;;;;21.80;28.90;96210.63;4910256;29;1911;-75
2022/04/08 01:03:10;;;;;;;;;;;;;;;21.59;29.24;96217.47;4947647;29;1623;-74
2022/04/08 01:05:36;;;;;;;;;;;;;;;21.36;29.63;96238.94;4955072;29;943;-74
2022/04/08 01:08:04;;;;;;;;;;;;;;;21.28;29.58;96238.50;4954684;29;1210;-74
2022/04/08 01:10:30;;;;;;;;;;;;;;;21.27;29.65;96236.94;4954961;29;1009;-74
2022/04/08 01:12:55;;;;;;;;;;;;;;;21.23;30.00;96230.69;4954906;29;1034;-74
2022/04/08 01:15:21;;;;;;;;;;;;;;;21.94;28.87;96242.25;4954779;29;1032;-74
2022/04/08 01:17:47;;;;;;;;;;;;;;;21.94;28.76;96236.59;4954018;28;1623;-74
2022/04/08 01:20:12;;;;;;;;;;;;;;;21.56;29.23;96235.44;4955053;29;1110;-74
2022/04/08 01:22:38;;;;;;;;;;;;;;;21.45;29.54;96253.00;4954759;29;1915;-74
2022/04/08 01:25:04;;;;;;;;;;;;;;;21.26;29.88;96254.41;4922723;29;1549;-74
2022/04/08 01:27:29;;;;;;;;;;;;;;;21.13;30.11;96260.31;4954821;29;1174;-74
2022/04/08 01:29:55;;;;;;;;;;;;;;;21.10;30.09;96252.81;5000150;28;1109;-74
2022/04/08 01:32:20;;;;;;;;;;;;;;;21.24;29.99;96254.09;5015092;28;1673;-75
2022/04/08 01:34:48;;;;;;;;;;;;;;;21.15;29.97;96257.78;5015567;28;989;-74
2022/04/08 01:37:14;;;;;;;;;;;;;;;21.21;29.73;96255.06;5015357;28;977;-74
2022/04/08 01:39:41;;;;;;;;;;;;;;;21.09;30.28;96251.25;4941359;28;980;-74
2022/04/08 01:42:07;;;;;;;;;;;;;;;21.40;30.09;96256.50;4973822;28;1906;-75
2022/04/08 01:44:32;;;;;;;;;;;;;;;21.84;28.93;96252.91;4973802;28;966;-74
2022/04/08 01:46:58;;;;;;;;;;;;;;;21.78;29.06;96246.38;4965676;28;1674;-74
2022/04/08 01:49:23;;;;;;;;;;;;;;;21.44;29.27;96250.63;4922359;29;1043;-75
2022/04/08 01:51:49;;;;;;;;;;;;;;;21.45;29.13;96255.03;4954329;29;1036;-74
2022/04/08 01:54:14;;;;;;;;;;;;;;;21.30;29.54;96264.28;4954413;29;1121;-74
2022/04/08 01:56:39;;;;;;;;;;;;;;;21.35;29.54;96260.00;4954846;29;1027;-74
2022/04/08 01:59:05;;;;;;;;;;;;;;;21.22;29.70;96259.47;4954522;29;1068;-74
2022/04/08 02:01:30;;;;;;;;;;;;;;;21.23;29.80;96256.13;4960555;28;1992;-74
2022/04/08 02:03:56;;;;;;;;;;;;;;;21.22;29.84;96246.09;4973676;28;1075;-74
2022/04/08 02:06:21;;;;;;;;;;;;;;;21.16;29.96;96248.03;4973262;28;1146;-74
2022/04/08 02:08:48;;;;;;;;;;;;;;;21.56;29.55;96249.59;4973376;28;1022;-74
2022/04/08 02:11:13;;;;;;;;;;;;;;;21.82;29.12;96241.28;5004003;28;958;-74
2022/04/08 02:13:39;;;;;;;;;;;;;;;21.47;29.54;96256.13;5015151;28;931;-74
2022/04/08 02:16:05;;;;;;;;;;;;;;;21.46;29.32;96254.56;5014550;28;1476;-74
2022/04/08 02:18:30;;;;;;;;;;;;;;;21.33;29.68;96257.66;4980189;28;975;-74
2022/04/08 02:20:56;;;;;;;;;;;;;;;21.25;29.92;96262.09;5015397;28;1910;-74
2022/04/08 02:23:21;;;;;;;;;;;;;;;21.55;29.64;96256.50;4973305;28;1056;-75
2022/04/08 02:25:47;;;;;;;;;;;;;;;21.74;29.19;96246.56;4973276;28;949;-74
2022/04/08 02:28:12;;;;;;;;;;;;;;;21.45;29.40;96249.38;4934859;29;1085;-74
2022/04/08 02:30:38;;;;;;;;;;;;;;;21.28;29.50;96249.81;4937515;29;1628;-74
2022/04/08 02:33:04;;;;;;;;;;;;;;;21.23;29.66;96244.81;4938707;29;1041;-74
2022/04/08 02:35:30;;;;;;;;;;;;;;;21.28;29.54;96244.16;4938403;29;2115;-74
2022/04/08 02:37:55;;;;;;;;;;;;;;;21.19;29.88;96240.63;4918694;29;1902;-74
2022/04/08 02:40:21;;;;;;;;;;;;;;;21.27;29.79;96253.13;4919464;29;1042;-75
2022/04/08 02:42:47;;;;;;;;;;;;;;;21.38;29.75;96246.94;4918825;29;1978;-74
2022/04/08 02:45:12;;;;;;;;;;;;;;;21.20;29.81;96254.28;4919314;29;1056;-74
2022/04/08 02:47:43;;;;;;;;;;;;;;;21.19;30.10;96251.94;4919314;29;1005;-75
2022/04/08 02:50:09;;;;;;;;;;;;;;;21.23;30.04;96258.97;4919138;29;1066;-75
2022/04/08 02:52:35;;;;;;;;;;;;;;;21.40;29.61;96261.34;4919001;29;1726;-74
2022/04/08 02:55:00;;;;;;;;;;;;;;;21.90;28.89;96258.66;4886402;29;1071;-74
2022/04/08 02:57:26;;;;;;;;;;;;;;;22.02;28.78;96254.72;4938269;29;1021;-74
2022/04/08 02:59:53;;;;;;;;;;;;;;;21.55;29.23;96260.13;4967018;28;1630;-75
2022/04/08 03:02:21;;;;;;;;;;;;;;;21.56;29.12;96258.09;4976284;28;1914;-74
2022/04/08 03:04:46;;;;;;;;;;;;;;;21.39;29.50;96265.47;4976162;28;1238;-74
2022/04/08 03:07:12;;;;;;;;;;;;;;;21.22;30.05;96267.94;4976460;28;1022;-74
2022/04/08 03:09:37;;;;;;;;;;;;;;;21.40;29.74;96269.84;4976095;28;1328;-74
2022/04/08 03:12:03;;;;;;;;;;;;;;;21.31;30.16;96276.38;4976459;28;966;-74
2022/04/08 03:14:29;;;;;;;;;;;;;;;21.56;30.23;96289.22;4981332;28;1581;-74
2022/04/08 03:16:54;;;;;;;;;;;;;;;21.87;29.55;96279.47;5017359;28;1513;-74
2022/04/08 03:19:20;;;;;;;;;;;;;;;22.12;28.99;96287.38;5017409;28;930;-74
2022/04/08 03:21:45;;;;;;;;;;;;;;;21.66;29.33;96299.19;5017422;28;1911;-74
2022/04/08 03:24:12;;;;;;;;;;;;;;;21.51;29.72;96295.56;4975709;28;1493;-75
2022/04/08 03:26:37;;;;;;;;;;;;;;;21.45;29.77;96303.13;4976053;28;1083;-75
2022/04/08 03:29:03;;;;;;;;;;;;;;;21.33;29.96;96302.13;4975676;28;1077;-74
2022/04/08 03:31:29;;;;;;;;;;;;;;;21.29;30.26;96312.81;4975962;28;983;-74
2022/04/08 03:33:54;;;;;;;;;;;;;;;21.57;30.09;96314.19;4975918;28;1045;-73
2022/04/08 03:36:20;;;;;;;;;;;;;;;21.98;29.32;96305.16;4975984;28;1033;-74
2022/04/08 03:38:45;;;;;;;;;;;;;;;21.91;29.09;96316.84;4975336;28;1682;-74
2022/04/08 03:41:11;;;;;;;;;;;;;;;21.42;29.95;96310.56;4974969;28;1981;-74
2022/04/08 03:43:36;;;;;;;;;;;;;;;21.41;29.79;96319.53;4975627;28;908;-74
2022/04/08 03:46:01;;;;;;;;;;;;;;;21.26;30.33;96323.06;4975535;28;1048;-74
2022/04/08 03:48:27;;;;;;;;;;;;;;;21.29;30.41;96333.41;4975644;28;1174;-75
2022/04/08 03:50:53;;;;;;;;;;;;;;;21.26;30.50;96328.72;4975540;28;1175;-74
2022/04/08 03:53:19;;;;;;;;;;;;;;;21.44;30.27;96324.22;4975387;28;1822;-74
2022/04/08 03:55:45;;;;;;;;;;;;;;;21.82;29.49;96329.84;4983604;28;1754;-74
2022/04/08 03:58:10;;;;;;;;;;;;;;;21.98;29.32;96333.47;4994846;28;1106;-75
2022/04/08 04:00:39;;;;;;;;;;;;;;;21.53;29.72;96332.63;4994839;28;1093;-74
2022/04/08 04:03:04;;;;;;;;;;;;;;;21.47;29.83;96340.22;4994765;28;1980;-74
2022/04/08 04:05:30;;;;;;;;;;;;;;;21.44;29.75;96338.34;4994603;28;997;-75
2022/04/08 04:07:58;;;;;;;;;;;;;;;21.36;30.04;96348.50;4994660;28;963;-74
2022/04/08 04:10:24;;;;;;;;;;;;;;;21.23;30.18;96349.47;4994329;28;1064;-74
2022/04/08 04:12:50;;;;;;;;;;;;;;;21.17;30.33;96351.41;4994647;28;995;-73
2022/04/08 04:15:15;;;;;;;;;;;;;;;21.18;30.49;96352.97;4994803;28;1018;-74
2022/04/08 04:17:41;;;;;;;;;;;;;;;21.13;30.27;96350.03;4994574;28;1074;-74
2022/04/08 04:20:06;;;;;;;;;;;;;;;21.26;30.30;96362.66;4991286;28;1274;-74
2022/04/08 04:22:32;;;;;;;;;;;;;;;21.31;30.06;96362.03;4994237;28;1968;-74
2022/04/08 04:24:57;;;;;;;;;;;;;;;21.49;30.26;96365.97;4994587;28;1011;-74
2022/04/08 04:27:23;;;;;;;;;;;;;;;21.78;29.44;96377.38;5010965;28;903;-75
2022/04/08 04:29:48;;;;;;;;;;;;;;;22.13;28.93;96376.00;5016486;28;930;-75
2022/04/08 04:32:14;;;;;;;;;;;;;;;21.58;29.42;96388.56;5016380;28;901;-75
2022/04/08 04:34:40;;;;;;;;;;;;;;;21.44;29.69;96398.56;5016580;28;956;-75
2022/04/08 04:37:05;;;;;;;;;;;;;;;21.39;29.70;96384.28;5020457;28;1198;-75
2022/04/08 04:39:31;;;;;;;;;;;;;;;21.24;30.23;96401.19;5025509;28;1224;-75
2022/04/08 04:41:57;;;;;;;;;;;;;;;21.39;30.03;96406.94;5026185;28;1971;-74
2022/04/08 04:44:22;;;;;;;;;;;;;;;21.59;30.48;96399.38;5024569;28;1217;-74
2022/04/08 04:46:48;;;;;;;;;;;;;;;21.98;29.44;96402.22;5026479;28;1284;-74
2022/04/08 04:49:13;;;;;;;;;;;;;;;22.02;29.52;96402.00;5025418;28;1309;-74
2022/04/08 04:51:39;;;;;;;;;;;;;;;21.55;29.90;96409.31;5024922;28;1289;-75
2022/04/08 04:54:04;;;;;;;;;;;;;;;21.37;30.21;96412.28;4974802;28;1353;-75
2022/04/08 04:56:30;;;;;;;;;;;;;;;21.45;30.15;96416.31;5020918;28;1292;-74
2022/04/08 04:58:55;;;;;;;;;;;;;;;21.42;30.14;96422.94;5015770;28;898;-74
2022/04/08 05:01:20;;;;;;;;;;;;;;;21.18;30.65;96432.16;5015768;28;1899;-74
2022/04/08 05:03:46;;;;;;;;;;;;;;;21.29;30.72;96431.63;5015942;28;1132;-74
2022/04/08 05:06:12;;;;;;;;;;;;;;;21.23;30.52;96439.22;5015774;28;916;-75
2022/04/08 05:08:37;;;;;;;;;;;;;;;21.23;30.63;96440.00;5015661;28;1191;-74
2022/04/08 05:11:03;;;;;;;;;;;;;;;21.67;30.35;96444.31;5015887;28;960;-74
2022/04/08 05:13:28;;;;;;;;;;;;;;;21.84;29.94;96448.28;5015765;28;995;-74
2022/04/08 05:15:53;;;;;;;;;;;;;;;22.03;29.70;96446.06;5015905;28;821;-75
2022/04/08 05:18:19;;;;;;;;;;;;;;;21.78;29.53;96445.31;5015859;28;995;-74
2022/04/08 05:20:44;;;;;;;;;;;;;;;21.38;30.37;96467.63;5015562;28;1019;-74
2022/04/08 05:23:10;;;;;;;;;;;;;;;21.52;29.98;96458.41;5015199;28;2601;-74
2022/04/08 05:25:35;;;;;;;;;;;;;;;21.20;30.38;96463.59;4964605;28;1156;-75
2022/04/08 05:28:01;;;;;;;;;;;;;;;21.67;30.11;96473.41;5015536;28;993;-74
2022/04/08 05:30:26;;;;;;;;;;;;;;;21.91;29.54;96475.41;4998230;28;981;-74
2022/04/08 05:32:52;;;;;;;;;;;;;;;22.15;28.87;96476.19;5015474;28;922;-74
2022/04/08 05:35:17;;;;;;;;;;;;;;;21.66;29.57;96469.03;4964501;28;1016;-74
2022/04/08 05:37:44;;;;;;;;;;;;;;;21.21;30.02;96479.31;5012888;28;1047;-74
2022/04/08 05:40:14;;;;;;;;;;;;;;;21.30;29.47;96484.94;4954504;29;1032;-74
2022/04/08 05:42:46;;;;;;;;;;;;;;;21.26;29.85;96478.66;4954515;29;1915;-74
2022/04/08 05:45:12;;;;;;;;;;;;;;;21.54;30.33;96487.00;4916423;29;1101;-75
2022/04/08 05:47:38;;;;;;;;;;;;;;;21.78;29.80;96487.78;4878961;29;1036;-74
2022/04/08 05:50:04;;;;;;;;;;;;;;;21.99;29.12;96487.97;4878928;29;1144;-74
2022/04/08 05:52:29;;;;;;;;;;;;;;;21.49;29.70;96488.44;4878812;29;981;-74
2022/04/08 05:54:55;;;;;;;;;;;;;;;21.40;29.70;96504.69;4878776;29;1032;-74
2022/04/08 05:57:20;;;;;;;;;;;;;;;21.18;30.06;96493.63;4878618;29;1180;-75
2022/04/08 05:59:46;;;;;;;;;;;;;;;21.32;30.93;96504.28;4878836;29;1003;-74
2022/04/08 06:02:11;;;;;;;;;;;;;;;21.74;29.80;96501.34;4878534;29;1907;-74
2022/04/08 06:04:37;;;;;;;;;;;;;;;22.04;29.29;96504.28;4881624;29;980;-74
2022/04/08 06:07:02;;;;;;;;;;;;;;;21.89;29.24;96489.28;4882112;29;1066;-75
2022/04/08 06:09:28;;;;;;;;;;;;;;;21.48;29.65;96495.38;4882330;29;942;-74
2022/04/08 06:11:53;;;;;;;;;;;;;;;21.31;29.82;96500.66;4927822;29;1014;-75
2022/04/08 06:14:18;;;;;;;;;;;;;;;21.29;29.78;96497.47;4938561;29;1024;-75
2022/04/08 06:16:44;;;;;;;;;;;;;;;21.84;29.94;96502.84;4966211;28;1092;-74
2022/04/08 06:19:09;;;;;;;;;;;;;;;21.98;29.68;96498.50;4977208;28;1016;-74
2022/04/08 06:21:35;;;;;;;;;;;;;;;22.17;29.41;96506.88;4960956;28;1978;-75
2022/04/08 06:24:00;;;;;;;;;;;;;;;21.62;29.78;96505.22;4979773;28;1046;-74
2022/04/08 06:26:26;;;;;;;;;;;;;;;21.53;29.79;96510.91;5018792;28;918;-74
2022/04/08 06:28:51;;;;;;;;;;;;;;;21.39;30.15;96512.41;5018839;28;1038;-75
2022/04/08 06:31:16;;;;;;;;;;;;;;;21.58;31.06;96528.03;4977164;28;1437;-74
2022/04/08 06:33:42;;;;;;;;;;;;;;;21.87;30.47;96534.31;4976815;28;1057;-74
2022/04/08 06:36:08;;;;;;;;;;;;;;;21.95;29.90;96538.31;4977034;28;1029;-74
2022/04/08 06:38:33;;;;;;;;;;;;;;;21.66;30.25;96544.63;4976939;28;1016;-74
2022/04/08 06:40:58;;;;;;;;;;;;;;;21.64;30.13;96553.63;4976811;28;1914;-73
2022/04/08 06:43:24;;;;;;;;;;;;;;;21.63;30.01;96552.06;4976808;28;1119;-74
2022/04/08 06:45:49;;;;;;;;;;;;;;;21.40;30.38;96541.47;4976755;28;980;-74
2022/04/08 06:48:15;;;;;;;;;;;;;;;21.55;30.17;96557.31;4976730;28;870;-74
2022/04/08 06:50:41;;;;;;;;;;;;;;;21.82;30.88;96559.19;4976597;28;1257;-74
2022/04/08 06:53:06;;;;;;;;;;;;;;;22.17;29.99;96560.69;4976490;28;1048;-74
2022/04/08 06:55:32;;;;;;;;;;;;;;;21.67;30.48;96568.88;4976641;28;1148;-74
2022/04/08 06:57:58;;;;;;;;;;;;;;;21.60;30.49;96569.97;4976416;28;1058;-73
2022/04/08 07:00:24;;;;;;;;;;;;;;;21.50;30.81;96576.94;4976495;28;1042;-74
2022/04/08 07:02:49;;;;;;;;;;;;;;;21.58;30.35;96590.28;5006578;28;1992;-74
2022/04/08 07:05:14;;;;;;;;;;;;;;;21.51;30.77;96589.88;5017766;28;968;-73
2022/04/08 07:07:40;;;;;;;;;;;;;;;21.68;31.26;96599.53;5017842;28;939;-74
2022/04/08 07:10:06;;;;;;;;;;;;;;;22.03;30.61;96604.69;5017953;28;962;-73
2022/04/08 07:12:31;;;;;;;;;;;;;;;21.76;30.60;96600.75;4967193;28;995;-74
2022/04/08 07:14:57;;;;;;;;;;;;;;;21.72;30.38;96608.63;5017095;28;947;-74
2022/04/08 07:17:28;;;;;;;;;;;;;;;21.55;30.70;96619.56;5017418;28;1112;-74
2022/04/08 07:19:54;;;;;;;;;;;;;;;21.39;30.73;96617.09;5017772;28;953;-74
2022/04/08 07:22:20;;;;;;;;;;;;;;;21.35;30.77;96615.69;5017464;28;1902;-74
2022/04/08 07:24:45;;;;;;;;;;;;;;;21.14;30.98;96635.22;5017765;28;1012;-74
2022/04/08 07:27:11;;;;;;;;;;;;;;;21.27;30.94;96644.28;5017627;28;891;-74
2022/04/08 07:29:36;;;;;;;;;;;;;;;21.19;31.03;96634.59;5017569;28;1020;-73
2022/04/08 07:32:02;;;;;;;;;;;;;;;21.18;31.04;96647.13;5017386;28;979;-74
2022/04/08 07:34:27;;;;;;;;;;;;;;;21.18;30.67;96657.66;4965996;28;988;-74
2022/04/08 07:36:53;;;;;;;;;;;;;;;21.17;30.67;96662.53;5017328;28;1011;-74
2022/04/08 07:39:18;;;;;;;;;;;;;;;21.16;30.47;96655.31;5017036;28;1004;-74
2022/04/08 07:41:44;;;;;;;;;;;;;;;21.56;30.86;96654.31;5017307;28;1973;-74
2022/04/08 07:44:09;;;;;;;;;;;;;;;21.72;30.23;96651.09;5017118;28;1089;-73
2022/04/08 07:46:34;;;;;;;;;;;;;;;21.99;29.60;96663.56;5016899;28;981;-73
2022/04/08 07:49:00;;;;;;;;;;;;;;;21.88;29.83;96660.47;5017057;28;1117;-74
2022/04/08 07:51:26;;;;;;;;;;;;;;;21.57;30.31;96672.84;5016959;28;1218;-74
2022/04/08 07:53:51;;;;;;;;;;;;;;;21.36;30.50;96668.97;4998497;28;1077;-74
2022/04/08 07:56:17;;;;;;;;;;;;;;;21.39;30.00;96672.91;4956261;29;1090;-73
2022/04/08 07:58:45;;;;;;;;;;;;;;;21.27;30.34;96677.47;4955889;29;1439;-74
2022/04/08 08:01:11;;;;;;;;;;;;;;;21.32;30.13;96669.16;4955929;29;1906;-74
2022/04/08 08:03:36;;;;;;;;;;;;;;;21.35;30.36;96666.59;4956081;29;1058;-74
2022/04/08 08:06:03;;;;;;;;;;;;;;;21.23;30.31;96676.84;4955939;29;1025;-73
2022/04/08 08:08:28;;;;;;;;;;;;;;;21.17;30.58;96676.69;4917681;29;1062;-74
2022/04/08 08:10:55;;;;;;;;;;;;;;;21.16;30.54;96674.34;4917449;29;1028;-74
2022/04/08 08:13:21;;;;;;;;;;;;;;;21.18;30.40;96675.44;4901790;29;1032;-73
2022/04/08 08:15:46;;;;;;;;;;;;;;;21.53;30.63;96678.66;4917819;29;1101;-74
2022/04/08 08:18:12;;;;;;;;;;;;;;;21.78;29.95;96682.38;4917641;29;1013;-74
2022/04/08 08:20:37;;;;;;;;;;;;;;;21.91;29.51;96684.97;4917754;29;1038;-73
2022/04/08 08:23:03;;;;;;;;;;;;;;;21.49;29.96;96691.41;4917074;29;1922;-74
2022/04/08 08:25:29;;;;;;;;;;;;;;;21.57;29.87;96701.16;4917673;29;946;-73
2022/04/08 08:27:55;;;;;;;;;;;;;;;21.42;29.99;96703.09;4960375;28;1013;-74
2022/04/08 08:30:21;;;;;;;;;;;;;;;21.37;30.24;96692.41;4974912;28;1002;-73
2022/04/08 08:32:46;;;;;;;;;;;;;;;21.29;30.43;96697.56;4974914;28;1166;-74
2022/04/08 08:35:17;;;;;;;;;;;;;;;21.26;30.37;96704.97;4974873;28;1074;-74
2022/04/08 08:37:42;;;;;;;;;;;;;;;21.16;30.40;96706.25;4975247;28;1004;-74
2022/04/08 08:40:11;;;;;;;;;;;;;;;21.35;29.90;96700.56;5007305;28;1060;-74
2022/04/08 08:42:36;;;;;;;;;;;;;;;21.39;30.43;96701.19;4998603;28;1906;-73
2022/04/08 08:45:02;;;;;;;;;;;;;;;21.49;29.83;96671.59;4993686;28;1006;-74
2022/04/08 08:47:29;;;;;;;;;;;;;;;21.93;29.74;96705.13;4994108;28;1071;-74
2022/04/08 08:49:55;;;;;;;;;;;;;;;21.54;30.06;96702.09;4994106;28;1016;-73
2022/04/08 08:52:20;;;;;;;;;;;;;;;21.50;30.08;96707.13;4977890;28;1190;-74
2022/04/08 08:54:46;;;;;;;;;;;;;;;21.52;30.11;96710.28;4994069;28;1005;-74
2022/04/08 08:57:12;;;;;;;;;;;;;;;21.21;30.61;96708.44;4993540;28;994;-74
2022/04/08 08:59:37;;;;;;;;;;;;;;;21.21;30.38;96702.78;4977665;28;1396;-73
2022/04/08 09:02:03;;;;;;;;;;;;;;;21.33;30.23;96712.38;4993751;28;1978;-73
2022/04/08 09:04:29;;;;;;;;;;;;;;;21.80;29.89;96706.09;4993850;28;1014;-74
2022/04/08 09:06:54;;;;;;;;;;;;;;;22.03;29.53;96703.81;4993794;28;997;-74
2022/04/08 09:09:32;;;;;;;;;;;;;;;21.65;30.11;96724.25;4993903;28;952;-74
2022/04/08 09:12:08;;;;;;;;;;;;;;;21.62;29.78;96709.00;4974133;28;1080;-74
2022/04/08 09:14:35;;;;;;;;;;;;;;;21.56;29.90;96713.75;4974148;28;936;-74
2022/04/08 09:17:01;;;;;;;;;;;;;;;21.52;30.00;96710.28;4974018;28;1015;-73
2022/04/08 09:19:30;;;;;;;;;;;;;;;21.56;29.90;96722.22;4974059;28;1000;-74
2022/04/08 09:21:55;;;;;;;;;;;;;;;21.49;30.11;96728.22;4978996;28;1907;-74
2022/04/08 09:24:21;;;;;;;;;;;;;;;21.77;30.54;96743.88;4993202;28;1050;-74
2022/04/08 09:26:50;;;;;;;;;;;;;;;22.07;29.60;96730.72;4993021;28;1037;-74
2022/04/08 09:29:16;;;;;;;;;;;;;;;22.01;29.47;96734.66;4993416;28;947;-74
2022/04/08 09:31:41;;;;;;;;;;;;;;;21.56;30.33;96739.22;4993053;28;1282;-74
2022/04/08 09:34:12;;;;;;;;;;;;;;;21.53;30.18;96734.50;4992740;28;1588;-74
2022/04/08 09:36:39;;;;;;;;;;;;;;;21.54;29.98;96747.38;4953997;29;1630;-74
2022/04/08 09:39:10;;;;;;;;;;;;;;;21.17;30.49;96736.09;4956593;28;1578;-74
2022/04/08 09:41:37;;;;;;;;;;;;;;;21.22;30.51;96732.63;4956144;28;1977;-74
2022/04/08 09:44:03;;;;;;;;;;;;;;;21.27;30.29;96746.13;4987088;28;1676;-74
2022/04/08 09:46:28;;;;;;;;;;;;;;;21.29;30.34;96746.44;4953415;28;1351;-74
2022/04/08 09:48:54;;;;;;;;;;;;;;;21.93;29.90;96750.44;4987310;28;1581;-74
2022/04/08 09:51:23;;;;;;;;;;;;;;;22.05;29.54;96735.28;4962842;28;1570;-73
2022/04/08 09:53:58;;;;;;;;;;;;;;;21.47;30.26;96742.06;4927939;29;1532;-74
2022/04/08 09:56:24;;;;;;;;;;;;;;;21.38;30.22;96747.72;4928520;29;1485;-73
2022/04/08 09:59:05;;;;;;;;;;;;;;;21.09;30.26;96740.50;4892254;29;1774;-74
2022/04/08 10:01:30;;;;;;;;;;;;;;;21.22;30.25;96754.47;4892179;29;1919;-73
2022/04/08 10:03:56;;;;;;;;;;;;;;;21.38;29.91;96756.22;4893553;29;1597;-74
2022/04/08 10:06:23;;;;;;;;;;;;;;;21.67;29.91;96762.16;4875273;29;1284;-74
2022/04/08 10:08:48;;;;;;;;;;;;;;;21.83;29.25;96755.34;4881075;29;1405;-74
2022/04/08 10:11:18;;;;;;;;;;;;;;;21.79;29.35;96749.84;4881891;29;1585;-74
2022/04/08 10:13:57;;;;;;;;;;;;;;;21.42;29.88;96759.69;4882178;29;997;-74
2022/04/08 10:16:22;;;;;;;;;;;;;;;21.17;30.18;96747.41;4865585;29;2051;-73
2022/04/08 10:18:48;;;;;;;;;;;;;;;21.26;30.22;96755.88;4881836;29;1036;-74
2022/04/08 10:21:14;;;;;;;;;;;;;;;21.22;30.07;96762.97;4863345;29;1891;-74
2022/04/08 10:23:39;;;;;;;;;;;;;;;21.47;29.83;96754.16;4863378;29;1003;-74
2022/04/08 10:26:05;;;;;;;;;;;;;;;22.07;28.91;96749.72;4863541;29;1072;-74
2022/04/08 10:28:35;;;;;;;;;;;;;;;21.50;29.44;96758.06;4863865;29;1057;-74
2022/04/08 10:31:00;;;;;;;;;;;;;;;21.39;29.94;96755.72;4878369;29;1059;-74
2022/04/08 10:33:29;;;;;;;;;;;;;;;21.47;29.59;96753.38;4908049;29;1651;-74
2022/04/08 10:35:55;;;;;;;;;;;;;;;21.51;29.72;96754.00;4908517;29;1458;-74
2022/04/08 10:38:20;;;;;;;;;;;;;;;22.01;28.92;96765.81;4909232;29;1658;-74
2022/04/08 10:40:52;;;;;;;;;;;;;;;22.10;28.59;96768.63;4909932;29;1595;-73
2022/04/08 10:43:18;;;;;;;;;;;;;;;21.70;28.95;96766.84;4909324;29;1914;-74
2022/04/08 10:46:09;;;;;;;;;;;;;;;21.55;29.53;96765.94;4918364;29;1586;-73
2022/04/08 10:48:35;;;;;;;;;;;;;;;21.44;29.47;96755.09;4919319;29;1197;-74
2022/04/08 10:51:18;;;;;;;;;;;;;;;21.53;29.42;96774.13;4918171;29;1094;-73
2022/04/08 10:53:44;;;;;;;;;;;;;;;21.46;29.65;96768.78;4938229;29;986;-74
2022/04/08 10:56:12;;;;;;;;;;;;;;;21.75;29.21;96774.69;4906409;29;1035;-74
2022/04/08 10:58:42;;;;;;;;;;;;;;;21.85;28.96;96776.25;4937966;29;1055;-73
2022/04/08 11:01:21;;;;;;;;;;;;;;;21.46;29.68;96774.47;4940498;28;1906;-74
2022/04/08 11:03:53;;;;;;;;;;;;;;;21.35;29.61;96774.13;4957308;29;1062;-74
2022/04/08 11:06:19;;;;;;;;;;;;;;;21.22;29.83;96794.88;4957080;29;1046;-74
2022/04/08 11:08:44;;;;;;;;;;;;;;;21.38;29.69;96785.28;4957290;28;988;-74
2022/04/08 11:11:10;;;;;;;;;;;;;;;21.27;29.87;96791.41;4957027;29;918;-74
2022/04/08 11:13:39;;;;;;;;;;;;;;;21.31;29.80;96794.91;4957031;29;1086;-74
2022/04/08 11:16:04;;;;;;;;;;;;;;;21.91;28.92;96804.69;4957465;29;1135;-73
2022/04/08 11:18:30;;;;;;;;;;;;;;;22.01;28.38;96808.28;4918593;29;1016;-74
2022/04/08 11:20:55;;;;;;;;;;;;;;;21.66;28.89;96807.91;4918707;29;997;-73
2022/04/08 11:23:27;;;;;;;;;;;;;;;21.46;29.27;96799.94;4918657;29;1910;-74
2022/04/08 11:25:53;;;;;;;;;;;;;;;21.33;29.39;96812.19;4945493;29;1057;-74
2022/04/08 11:28:20;;;;;;;;;;;;;;;21.30;29.52;96807.47;4937522;29;1030;-74
2022/04/08 11:30:45;;;;;;;;;;;;;;;21.29;29.33;96811.50;4937480;29;912;-73
2022/04/08 11:33:14;;;;;;;;;;;;;;;21.36;29.37;96810.47;4937551;29;1008;-73
2022/04/08 11:35:40;;;;;;;;;;;;;;;21.62;28.99;96802.41;4937206;29;1021;-74
2022/04/08 11:38:20;;;;;;;;;;;;;;;21.95;28.18;96821.53;4921251;29;1417;-74
2022/04/08 11:40:45;;;;;;;;;;;;;;;21.58;28.85;96810.28;4937463;29;944;-74
2022/04/08 11:43:16;;;;;;;;;;;;;;;21.54;28.77;96810.44;4937296;29;1915;-74
2022/04/08 11:45:44;;;;;;;;;;;;;;;21.40;29.00;96816.75;4921862;29;938;-74
2022/04/08 11:48:23;;;;;;;;;;;;;;;21.33;29.08;96823.50;4937339;29;1015;-74
2022/04/08 11:50:48;;;;;;;;;;;;;;;21.36;29.13;96821.00;4937196;29;1068;-73
2022/04/08 11:53:15;;;;;;;;;;;;;;;21.39;28.82;96825.69;4937111;29;1068;-74
2022/04/08 11:55:50;;;;;;;;;;;;;;;21.30;28.97;96824.44;4952073;28;973;-74
2022/04/08 11:58:19;;;;;;;;;;;;;;;21.77;28.50;96834.47;4957378;28;1474;-74
2022/04/08 12:00:46;;;;;;;;;;;;;;;21.82;27.98;96827.41;4975057;28;1676;-74
2022/04/08 12:03:16;;;;;;;;;;;;;;;21.61;28.18;96820.66;4958925;28;1900;-74
2022/04/08 12:05:45;;;;;;;;;;;;;;;21.65;28.33;96829.75;4975483;28;939;-74
2022/04/08 12:08:10;;;;;;;;;;;;;;;21.46;28.79;96836.72;4975294;28;1011;-74
2022/04/08 12:10:36;;;;;;;;;;;;;;;21.49;28.45;96845.03;4975420;28;951;-74
2022/04/08 12:13:11;;;;;;;;;;;;;;;21.32;28.77;96838.91;4958810;28;1283;-73
2022/04/08 12:15:40;;;;;;;;;;;;;;;21.09;29.06;96842.31;4974933;28;1069;-74
2022/04/08 12:18:06;;;;;;;;;;;;;;;21.27;28.77;96842.31;4975173;28;1054;-73
2022/04/08 12:20:31;;;;;;;;;;;;;;;21.17;28.94;96843.56;4958857;28;998;-74
2022/04/08 12:22:57;;;;;;;;;;;;;;;21.15;29.02;96848.94;4972053;28;1918;-74
2022/04/08 12:25:22;;;;;;;;;;;;;;;21.57;28.46;96865.31;4958896;28;1170;-73
2022/04/08 12:27:52;;;;;;;;;;;;;;;21.77;27.99;96862.78;4975085;28;1026;-74
2022/04/08 12:30:17;;;;;;;;;;;;;;;21.55;28.48;96862.16;4995147;28;972;-74
2022/04/08 12:32:43;;;;;;;;;;;;;;;21.37;28.60;96859.34;4996720;28;985;-73
2022/04/08 12:35:10;;;;;;;;;;;;;;;21.23;29.02;96861.50;4996677;28;927;-74
2022/04/08 12:37:36;;;;;;;;;;;;;;;21.23;28.77;96869.97;4998328;28;1542;-74
2022/04/08 12:40:05;;;;;;;;;;;;;;;21.17;28.69;96866.22;5025115;28;1541;-73
2022/04/08 12:42:34;;;;;;;;;;;;;;;21.53;28.53;96865.47;4967193;28;1982;-73
2022/04/08 12:44:59;;;;;;;;;;;;;;;21.84;28.01;96862.47;4962749;28;1567;-74
2022/04/08 12:47:25;;;;;;;;;;;;;;;21.61;28.17;96863.13;4964721;28;1487;-74
2022/04/08 12:49:50;;;;;;;;;;;;;;;21.35;28.75;96859.00;4895611;29;1498;-74
2022/04/08 12:52:16;;;;;;;;;;;;;;;21.25;28.77;96866.69;4921243;29;1599;-74
2022/04/08 12:54:41;;;;;;;;;;;;;;;21.12;28.72;96852.69;4943766;29;1480;-74
2022/04/08 12:57:07;;;;;;;;;;;;;;;21.31;28.83;96854.31;4918854;29;1621;-74